createdAt,value
2018-02-17T00:01:29.511Z,55.03
2018-02-17T00:03:57.030Z,46.13
2018-02-17T00:06:24.534Z,35.90
2018-02-17T00:08:52.067Z,51.90
2018-02-17T00:11:19.583Z,45.60
2018-02-17T00:13:47.883Z,51.33
2018-02-17T00:16:15.391Z,65.87
2018-02-17T00:18:42.923Z,47.63
2018-02-17T00:21:10.434Z,145.10
2018-02-17T00:23:38.727Z,151.03
2018-02-17T00:26:06.240Z,85.97
2018-02-17T00:28:33.778Z,170.10
2018-02-17T00:31:01.295Z,108.03
2018-02-17T00:33:29.591Z,287.13
2018-02-17T00:35:57.100Z,78.00
2018-02-17T00:38:24.635Z,226.23
2018-02-17T00:40:52.148Z,277.60
2018-02-17T00:43:20.443Z,166.43
2018-02-17T00:45:47.960Z,283.13
2018-02-17T00:48:15.491Z,189.07
2018-02-17T00:50:42.998Z,170.17
2018-02-17T00:53:11.295Z,434.77
2018-02-17T00:55:38.812Z,108.63
2018-02-17T00:58:06.344Z,128.70
2018-02-17T01:00:33.860Z,104.00
2018-02-17T01:03:02.151Z,129.40
2018-02-17T01:05:29.662Z,89.20
2018-02-17T01:07:57.190Z,149.93
2018-02-17T01:10:24.703Z,156.93
2018-02-17T01:12:52.226Z,85.70
2018-02-17T01:15:19.739Z,85.90
2018-02-17T01:17:48.026Z,87.60
2018-02-17T01:20:15.526Z,91.27
2018-02-17T01:22:43.051Z,103.20
2018-02-17T01:25:10.558Z,88.70
2018-02-17T01:27:38.082Z,78.20
2018-02-17T01:30:05.995Z,71.90
2018-02-17T01:32:33.514Z,90.70
2018-02-17T01:35:01.023Z,92.90
2018-02-17T01:37:28.568Z,78.37
2018-02-17T01:39:56.087Z,97.40
2018-02-17T01:42:23.599Z,98.70
2018-02-17T01:44:51.122Z,78.97
2018-02-17T01:47:18.634Z,75.47
2018-02-17T01:49:46.929Z,76.47
2018-02-17T01:52:14.451Z,88.87
2018-02-17T01:54:41.979Z,126.07
2018-02-17T01:57:09.483Z,101.07
2018-02-17T01:59:37.782Z,119.53
2018-02-17T02:02:05.298Z,102.13
2018-02-17T02:04:32.830Z,143.90
2018-02-17T02:07:00.342Z,194.97
2018-02-17T02:09:28.630Z,143.53
2018-02-17T02:11:56.143Z,230.93
2018-02-17T02:14:23.681Z,216.23
2018-02-17T02:16:51.191Z,179.80
2018-02-17T02:19:19.486Z,253.27
2018-02-17T02:21:47.003Z,316.77
2018-02-17T02:24:14.538Z,511.93
2018-02-17T02:26:42.042Z,199.33
2018-02-17T02:29:10.314Z,298.87
2018-02-17T02:31:38.610Z,371.63
2018-02-17T02:34:06.123Z,239.20
2018-02-17T02:36:33.659Z,357.63
2018-02-17T02:39:01.171Z,137.97
2018-02-17T02:41:29.467Z,289.03
2018-02-17T02:43:56.976Z,226.77
2018-02-17T02:46:24.507Z,290.10
2018-02-17T02:48:52.019Z,373.37
2018-02-17T02:51:20.315Z,391.23
2018-02-17T02:53:47.830Z,521.03
2018-02-17T02:56:15.363Z,286.20
2018-02-17T02:58:42.875Z,189.07
2018-02-17T03:01:11.174Z,343.83
2018-02-17T03:03:38.684Z,413.17
2018-02-17T03:06:06.217Z,188.87
2018-02-17T03:08:33.730Z,289.20
2018-02-17T03:11:02.026Z,311.83
2018-02-17T03:13:29.535Z,226.60
2018-02-17T03:15:57.066Z,353.90
2018-02-17T03:18:24.579Z,237.70
2018-02-17T03:20:52.851Z,161.20
2018-02-17T03:23:21.142Z,230.27
2018-02-17T03:25:48.649Z,247.80
2018-02-17T03:28:16.171Z,437.43
2018-02-17T03:30:43.683Z,470.90
2018-02-17T03:33:11.212Z,314.10
2018-02-17T03:35:38.726Z,446.57
2018-02-17T03:38:07.014Z,303.67
2018-02-17T03:40:34.525Z,208.63
2018-02-17T03:43:02.055Z,348.13
2018-02-17T03:45:30.015Z,222.87
2018-02-17T03:47:57.542Z,323.43
2018-02-17T03:50:25.814Z,485.63
2018-02-17T03:52:54.102Z,273.83
2018-02-17T03:55:21.618Z,449.77
2018-02-17T03:57:49.152Z,353.30
2018-02-17T04:00:16.659Z,261.63
2018-02-17T04:02:44.957Z,268.53
2018-02-17T04:05:12.465Z,337.97
2018-02-17T04:07:39.999Z,489.20
2018-02-17T04:10:07.506Z,270.30
2018-02-17T04:12:35.810Z,446.97
2018-02-17T04:15:03.319Z,224.70
2018-02-17T04:17:30.831Z,325.70
2018-02-17T04:19:58.362Z,434.60
2018-02-17T04:22:26.631Z,297.43
2018-02-17T04:24:54.932Z,345.37
2018-02-17T04:27:22.442Z,378.27
2018-02-17T04:29:49.968Z,439.87
2018-02-17T04:32:17.478Z,437.47
2018-02-17T04:34:45.771Z,284.23
2018-02-17T04:37:13.283Z,122.97
2018-02-17T04:39:56.607Z,167.43
2018-02-17T04:42:30.152Z,114.70
2018-02-17T04:48:02.547Z,240.30
2018-02-17T04:50:51.555Z,159.33
2018-02-17T04:53:28.990Z,87.80
2018-02-17T04:56:02.953Z,337.67
2018-02-17T04:58:46.616Z,197.63
2018-02-17T05:01:28.990Z,235.20
2018-02-17T05:04:00.371Z,100.80
2018-02-17T05:06:33.528Z,133.67
2018-02-17T05:09:03.695Z,144.10
2018-02-17T05:11:31.958Z,91.63
2018-02-17T05:14:09.399Z,92.13
2018-02-17T05:19:46.242Z,125.70
2018-02-17T05:22:13.746Z,231.97
2018-02-17T05:24:41.883Z,139.30
2018-02-17T05:27:10.618Z,246.27
2018-02-17T05:29:42.648Z,87.50
2018-02-17T05:32:10.926Z,62.43
2018-02-17T05:34:42.603Z,68.30
2018-02-17T05:37:10.117Z,68.83
2018-02-17T05:39:43.270Z,105.80
2018-02-17T05:42:22.618Z,75.03
2018-02-17T05:44:53.978Z,62.13
2018-02-17T05:50:39.554Z,100.27
2018-02-17T05:53:07.068Z,49.57
2018-02-17T05:55:35.342Z,82.37
2018-02-17T05:58:03.623Z,99.90
2018-02-17T06:00:31.131Z,179.17
2018-02-17T06:02:58.645Z,92.83
2018-02-17T06:05:26.468Z,315.70
2018-02-17T06:07:53.990Z,150.70
2018-02-17T06:10:21.495Z,81.53
2018-02-17T06:12:49.786Z,216.53
2018-02-17T06:15:18.058Z,135.70
2018-02-17T06:17:46.353Z,235.57
2018-02-17T06:20:13.863Z,210.47
2018-02-17T06:22:41.391Z,214.97
2018-02-17T06:25:08.898Z,225.77
2018-02-17T06:27:37.194Z,185.50
2018-02-17T06:30:04.699Z,155.00
2018-02-17T06:32:32.224Z,400.13
2018-02-17T06:34:59.734Z,83.37
2018-02-17T06:37:27.259Z,365.43
2018-02-17T06:39:54.759Z,225.30
2018-02-17T06:42:22.282Z,202.80
2018-02-17T06:44:49.787Z,143.83
2018-02-17T06:47:18.082Z,190.73
2018-02-17T06:49:45.590Z,269.50
2018-02-17T06:52:13.111Z,145.37
2018-02-17T06:54:40.623Z,120.73
2018-02-17T06:57:08.147Z,98.53
2018-02-17T06:59:35.666Z,131.57
2018-02-17T07:02:03.174Z,212.50
2018-02-17T07:04:30.697Z,137.13
2018-02-17T07:06:58.201Z,130.30
2018-02-17T07:09:25.722Z,110.40
2018-02-17T07:11:53.235Z,155.60
2018-02-17T07:14:21.526Z,74.07
2018-02-17T07:16:49.798Z,129.63
2018-02-17T07:19:18.354Z,99.27
2018-02-17T07:21:45.863Z,182.90
2018-02-17T07:24:13.384Z,127.00
2018-02-17T07:26:41.654Z,175.27
2018-02-17T07:29:09.178Z,177.80
2018-02-17T07:31:36.682Z,194.03
2018-02-17T07:34:04.972Z,234.50
2018-02-17T07:36:33.243Z,195.93
2018-02-17T07:39:01.532Z,320.70
2018-02-17T07:41:29.039Z,140.93
2018-02-17T07:43:56.554Z,236.40
2018-02-17T07:46:24.054Z,94.73
2018-02-17T07:48:51.577Z,143.73
2018-02-17T07:51:19.082Z,162.87
2018-02-17T07:53:46.606Z,106.53
2018-02-17T07:56:14.114Z,88.53
2018-02-17T07:58:42.400Z,76.10
2018-02-17T08:01:10.671Z,58.47
2018-02-17T08:03:38.943Z,62.73
2018-02-17T08:06:07.234Z,53.63
2018-02-17T08:08:35.164Z,84.23
2018-02-17T08:11:02.682Z,88.30
2018-02-17T08:13:30.186Z,82.73
2018-02-17T08:15:57.710Z,158.35
2018-02-17T08:18:25.213Z,76.90
2018-02-17T08:20:53.886Z,79.97
2018-02-17T08:23:21.387Z,42.70
2018-02-17T08:25:48.899Z,52.63
2018-02-17T08:28:16.403Z,36.37
2018-02-17T08:30:43.922Z,44.83
2018-02-17T08:33:11.423Z,42.93
2018-02-17T08:35:38.946Z,44.17
2018-02-17T08:38:07.214Z,55.50
2018-02-17T08:40:34.733Z,43.07
2018-02-17T08:43:02.231Z,42.47
2018-02-17T08:45:29.755Z,38.53
2018-02-17T08:47:57.255Z,31.20
2018-02-17T08:50:25.571Z,32.67
2018-02-17T08:52:53.071Z,37.93
2018-02-17T08:55:20.586Z,29.37
2018-02-17T08:57:48.086Z,34.93
2018-02-17T09:00:15.875Z,37.33
2018-02-17T09:02:44.166Z,32.93
2018-02-17T09:05:12.434Z,29.90
2018-02-17T09:07:40.714Z,26.33
2018-02-17T09:10:09.141Z,29.10
2018-02-17T09:12:37.660Z,32.53
2018-02-17T09:15:06.170Z,25.63
2018-02-17T09:17:33.842Z,26.07
2018-02-17T09:20:01.375Z,26.80
2018-02-17T09:22:29.654Z,23.60
2018-02-17T09:24:57.918Z,26.70
2018-02-17T09:27:26.222Z,31.97
2018-02-17T09:29:53.722Z,29.73
2018-02-17T09:32:21.334Z,26.70
2018-02-17T09:34:48.902Z,30.60
2018-02-17T09:37:16.424Z,28.37
2018-02-17T09:39:43.924Z,23.83
2018-02-17T09:42:11.430Z,25.30
2018-02-17T09:44:38.935Z,30.03
2018-02-17T09:47:06.455Z,27.27
2018-02-17T09:49:33.959Z,24.33
2018-02-17T09:52:01.471Z,28.83
2018-02-17T09:54:28.975Z,32.80
2018-02-17T09:56:56.490Z,28.47
2018-02-17T09:59:24.760Z,32.43
2018-02-17T10:01:52.274Z,33.03
2018-02-17T10:04:19.778Z,31.77
2018-02-17T10:06:47.366Z,26.37
2018-02-17T10:09:14.932Z,27.23
2018-02-17T10:11:42.486Z,33.83
2018-02-17T10:14:09.990Z,33.43
2018-02-17T10:16:37.507Z,35.80
2018-02-17T10:19:05.002Z,31.37
2018-02-17T10:21:32.514Z,31.30
2018-02-17T10:24:00.020Z,26.23
2018-02-17T10:26:27.549Z,29.20
2018-02-17T10:28:55.042Z,26.07
2018-02-17T10:31:22.559Z,37.60
2018-02-17T10:33:50.070Z,35.10
2018-02-17T10:36:17.592Z,41.43
2018-02-17T10:38:45.143Z,36.17
2018-02-17T10:41:12.638Z,43.97
2018-02-17T10:43:40.163Z,39.90
2018-02-17T10:46:07.702Z,57.23
2018-02-17T10:48:35.231Z,52.87
2018-02-17T10:51:03.506Z,63.07
2018-02-17T10:53:31.099Z,67.50
2018-02-17T10:55:58.659Z,62.97
2018-02-17T10:58:26.187Z,65.53
2018-02-17T11:00:54.454Z,73.73
2018-02-17T11:03:21.968Z,50.77
2018-02-17T11:05:49.475Z,50.43
2018-02-17T11:08:16.990Z,59.03
2018-02-17T11:10:44.486Z,86.47
2018-02-17T11:13:12.002Z,54.97
2018-02-17T11:15:39.504Z,69.87
2018-02-17T11:18:07.023Z,46.37
2018-02-17T11:20:34.526Z,73.13
2018-02-17T11:23:02.830Z,54.93
2018-02-17T11:25:30.327Z,53.00
2018-02-17T11:27:57.846Z,55.40
2018-02-17T11:30:25.358Z,50.77
2018-02-17T11:32:52.879Z,64.23
2018-02-17T11:35:20.382Z,56.50
2018-02-17T11:37:48.007Z,54.33
2018-02-17T11:40:15.500Z,62.37
2018-02-17T11:42:43.018Z,72.03
2018-02-17T11:45:10.511Z,61.63
2018-02-17T11:47:38.740Z,47.00
2018-02-17T11:50:06.243Z,67.97
2018-02-17T11:52:33.768Z,57.73
2018-02-17T11:55:01.277Z,47.83
2018-02-17T11:57:29.563Z,71.97
2018-02-17T11:59:57.834Z,56.80
2018-02-17T12:02:26.120Z,55.97
2018-02-17T12:04:54.387Z,55.40
2018-02-17T12:07:22.666Z,56.97
2018-02-17T12:09:50.930Z,54.70
2018-02-17T12:12:19.214Z,57.30
2018-02-17T12:14:47.480Z,44.30
2018-02-17T12:17:15.783Z,49.90
2018-02-17T12:19:43.347Z,42.83
2018-02-17T12:22:10.866Z,48.40
2018-02-17T12:24:38.366Z,47.53
2018-02-17T12:27:05.878Z,45.07
2018-02-17T12:29:33.477Z,43.70
2018-02-17T12:32:00.990Z,42.80
2018-02-17T12:34:28.491Z,49.43
2018-02-17T12:36:55.988Z,39.60
2018-02-17T12:39:23.510Z,37.73
2018-02-17T12:41:51.019Z,40.20
2018-02-17T12:44:18.539Z,40.03
2018-02-17T12:46:46.039Z,39.97
2018-02-17T12:49:13.559Z,37.13
2018-02-17T12:51:41.059Z,32.67
2018-02-17T12:54:08.575Z,32.03
2018-02-17T12:56:36.084Z,29.67
2018-02-17T12:59:04.383Z,28.50
2018-02-17T13:01:32.647Z,37.57
2018-02-17T13:04:00.938Z,25.17
2018-02-17T13:06:28.443Z,26.17
2018-02-17T13:08:55.972Z,29.30
2018-02-17T13:11:23.474Z,24.00
2018-02-17T13:13:51.774Z,29.27
2018-02-17T13:16:20.040Z,28.60
2018-02-17T13:18:47.554Z,24.63
2018-02-17T13:21:15.047Z,21.80
2018-02-17T13:23:42.564Z,15.53
2018-02-17T13:26:10.062Z,13.77
2018-02-17T13:28:37.574Z,15.47
2018-02-17T13:31:05.070Z,14.13
2018-02-17T13:33:32.586Z,17.10
2018-02-17T13:36:00.082Z,15.47
2018-02-17T13:38:27.600Z,10.20
2018-02-17T13:40:55.095Z,11.37
2018-02-17T13:43:23.379Z,10.00
2018-02-17T13:45:50.876Z,11.27
2018-02-17T13:48:18.410Z,13.37
2018-02-17T13:50:45.902Z,11.00
2018-02-17T13:53:13.414Z,11.30
2018-02-17T13:55:40.910Z,10.67
2018-02-17T13:58:08.426Z,14.10
2018-02-17T14:00:35.931Z,11.30
2018-02-17T14:03:03.445Z,13.30
2018-02-17T14:05:30.959Z,10.13
2018-02-17T14:07:58.475Z,17.07
2018-02-17T14:10:26.743Z,16.43
2018-02-17T14:12:54.268Z,18.70
2018-02-17T14:15:21.767Z,15.10
2018-02-17T14:17:49.278Z,13.53
2018-02-17T14:20:16.774Z,13.23
2018-02-17T14:22:44.295Z,15.03
2018-02-17T14:25:11.791Z,14.20
2018-02-17T14:27:39.307Z,15.67
2018-02-17T14:30:06.803Z,12.80
2018-02-17T14:32:34.293Z,13.17
2018-02-17T14:35:02.566Z,15.73
2018-02-17T14:37:30.831Z,17.07
2018-02-17T14:39:59.114Z,17.40
2018-02-17T14:42:27.384Z,14.93
2018-02-17T14:44:55.667Z,12.70
2018-02-17T14:47:23.931Z,12.03
2018-02-17T14:49:52.218Z,12.30
2018-02-17T14:52:20.486Z,14.87
2018-02-17T14:54:48.763Z,12.77
2018-02-17T14:57:17.022Z,10.90
2018-02-17T14:59:44.539Z,12.43
2018-02-17T15:02:12.035Z,12.03
2018-02-17T15:04:39.555Z,14.47
2018-02-17T15:07:07.054Z,13.00
2018-02-17T15:09:34.564Z,11.83
2018-02-17T15:12:02.063Z,10.40
2018-02-17T15:16:51.074Z,9.83
2018-02-17T15:19:18.595Z,13.80
2018-02-17T15:21:46.091Z,12.47
2018-02-17T15:24:13.602Z,15.70
2018-02-17T15:26:41.102Z,14.57
2018-02-17T15:29:09.384Z,16.07
2018-02-17T15:31:36.882Z,14.60
2018-02-17T15:34:04.396Z,14.23
2018-02-17T15:36:32.331Z,16.00
2018-02-17T15:38:59.842Z,12.90
2018-02-17T15:41:27.343Z,14.03
2018-02-17T15:43:54.858Z,15.80
2018-02-17T15:46:22.355Z,14.93
2018-02-17T15:48:49.867Z,14.80
2018-02-17T15:51:17.366Z,16.37
2018-02-17T15:53:44.878Z,14.57
2018-02-17T15:56:12.379Z,18.57
2018-02-17T15:58:39.898Z,16.57
2018-02-17T16:01:07.407Z,16.70
2018-02-17T16:03:34.919Z,19.40
2018-02-17T16:06:02.417Z,18.07
2018-02-17T16:08:29.935Z,20.50
2018-02-17T16:10:57.434Z,19.10
2018-02-17T16:13:24.951Z,18.17
2018-02-17T16:15:52.450Z,21.07
2018-02-17T16:18:19.967Z,20.87
2018-02-17T16:20:47.474Z,20.20
2018-02-17T16:23:14.976Z,15.83
2018-02-17T16:25:42.498Z,22.53
2018-02-17T16:28:10.000Z,23.90
2018-02-17T16:30:37.518Z,21.47
2018-02-17T16:33:05.795Z,20.10
2018-02-17T16:35:33.310Z,20.27
2018-02-17T16:38:00.811Z,19.50
2018-02-17T16:40:29.094Z,21.23
2018-02-17T16:42:57.363Z,19.93
2018-02-17T16:45:25.651Z,17.80
2018-02-17T16:47:53.915Z,17.17
2018-02-17T16:50:22.197Z,20.27
2018-02-17T16:52:50.458Z,16.03
2018-02-17T16:55:18.055Z,16.50
2018-02-17T16:57:45.606Z,16.00
2018-02-17T17:00:13.119Z,17.50
2018-02-17T17:02:40.624Z,17.30
2018-02-17T17:05:08.143Z,19.13
2018-02-17T17:07:35.650Z,21.43
2018-02-17T17:10:03.176Z,25.07
2018-02-17T17:12:31.447Z,22.70
2018-02-17T17:14:59.057Z,21.83
2018-02-17T17:17:26.543Z,20.90
2018-02-17T17:19:54.062Z,24.90
2018-02-17T17:22:21.570Z,24.47
2018-02-17T17:24:49.091Z,21.53
2018-02-17T17:27:16.594Z,26.37
2018-02-17T17:29:44.118Z,20.23
2018-02-17T17:32:11.623Z,26.47
2018-02-17T17:34:39.914Z,25.57
2018-02-17T17:37:07.414Z,28.40
2018-02-17T17:39:34.938Z,30.43
2018-02-17T17:42:02.447Z,28.33
2018-02-17T17:44:29.979Z,27.13
2018-02-17T17:46:57.488Z,28.90
2018-02-17T17:49:25.758Z,30.73
2018-02-17T17:51:53.278Z,27.73
2018-02-17T17:54:20.791Z,27.10
2018-02-17T17:56:49.082Z,27.23
2018-02-17T17:59:16.590Z,26.40
2018-02-17T18:01:44.114Z,24.30
2018-02-17T18:04:11.619Z,26.23
2018-02-17T18:06:39.150Z,25.70
2018-02-17T18:09:06.655Z,24.00
2018-02-17T18:11:34.922Z,28.30
2018-02-17T18:14:03.208Z,26.47
2018-02-17T18:16:31.479Z,25.33
2018-02-17T18:18:59.771Z,22.97
2018-02-17T18:21:27.278Z,25.00
2018-02-17T18:23:54.803Z,25.83
2018-02-17T18:26:22.323Z,28.50
2018-02-17T18:28:50.602Z,24.40
2018-02-17T18:31:18.878Z,26.23
2018-02-17T18:33:47.163Z,25.67
2018-02-17T18:36:15.434Z,22.83
2018-02-17T18:38:43.722Z,26.63
2018-02-17T18:41:11.227Z,29.00
2018-02-17T18:43:38.743Z,24.87
2018-02-17T18:46:06.251Z,22.53
2018-02-17T18:48:33.772Z,29.30
2018-02-17T18:51:01.274Z,29.67
2018-02-17T18:53:28.803Z,28.40
2018-02-17T18:55:56.310Z,27.73
2018-02-17T18:58:24.583Z,27.27
2018-02-17T19:00:52.875Z,29.40
2018-02-17T19:03:21.142Z,32.03
2018-02-17T19:05:49.427Z,34.55
2018-02-17T19:08:17.699Z,36.83
2018-02-17T19:10:45.986Z,31.00
2018-02-17T19:13:13.491Z,31.13
2018-02-17T19:15:41.011Z,31.30
2018-02-17T19:18:08.522Z,27.23
2018-02-17T19:20:36.042Z,30.13
2018-02-17T19:23:03.546Z,22.83
2018-02-17T19:25:31.062Z,31.97
2018-02-17T19:27:58.604Z,29.97
2018-02-17T19:30:26.123Z,33.60
2018-02-17T19:32:53.627Z,31.40
2018-02-17T19:35:21.147Z,32.63
2018-02-17T19:37:49.420Z,34.00
2018-02-17T19:40:17.727Z,28.20
2018-02-17T19:42:45.235Z,31.00
2018-02-17T19:45:12.753Z,29.20
2018-02-17T19:47:40.377Z,24.00
2018-02-17T19:50:08.757Z,23.90
2018-02-17T19:52:36.290Z,25.07
2018-02-17T19:55:04.579Z,30.00
2018-02-17T19:57:32.086Z,29.93
2018-02-17T19:59:59.611Z,30.67
2018-02-17T20:02:27.883Z,27.60
2018-02-17T20:04:56.170Z,35.93
2018-02-17T20:07:24.438Z,30.90
2018-02-17T20:09:52.727Z,29.30
2018-02-17T20:12:20.999Z,30.00
2018-02-17T20:14:49.287Z,26.47
2018-02-17T20:17:16.790Z,30.20
2018-02-17T20:19:44.315Z,25.87
2018-02-17T20:22:11.868Z,27.90
2018-02-17T20:24:39.375Z,27.90
2018-02-17T20:27:06.899Z,29.50
2018-02-17T20:29:34.398Z,32.03
2018-02-17T20:32:01.919Z,31.03
2018-02-17T20:34:29.423Z,38.30
2018-02-17T20:36:57.706Z,38.20
2018-02-17T20:39:25.974Z,32.67
2018-02-17T20:41:54.266Z,33.03
2018-02-17T20:44:22.538Z,38.17
2018-02-17T20:46:50.826Z,38.67
2018-02-17T20:49:18.330Z,36.03
2018-02-17T20:51:45.851Z,40.93
2018-02-17T20:54:13.356Z,35.50
2018-02-17T20:59:15.570Z,35.50
2018-02-17T21:01:43.856Z,37.33
2018-02-17T21:04:12.122Z,38.77
2018-02-17T21:06:39.652Z,36.87
2018-02-17T21:09:07.167Z,36.93
2018-02-17T21:11:34.808Z,36.33
2018-02-17T21:14:03.270Z,34.17
2018-02-17T21:16:30.751Z,33.00
2018-02-17T21:18:58.329Z,34.77
2018-02-17T21:21:25.998Z,37.43
2018-02-17T21:23:53.662Z,33.77
2018-02-17T21:26:21.195Z,38.07
2018-02-17T21:28:48.899Z,36.40
2018-02-17T21:31:16.535Z,35.00
2018-02-17T21:33:44.174Z,34.10
2018-02-17T21:36:11.825Z,34.30
2018-02-17T21:38:40.190Z,38.03
2018-02-17T21:41:08.614Z,36.83
2018-02-17T21:43:36.126Z,29.60
2018-02-17T21:46:04.468Z,37.70
2018-02-17T21:48:32.011Z,36.03
2018-02-17T21:50:59.582Z,35.70
2018-02-17T21:53:27.102Z,35.10
2018-02-17T21:55:55.473Z,35.87
2018-02-17T21:58:23.747Z,38.73
2018-02-17T22:00:52.036Z,37.90
2018-02-17T22:03:19.543Z,38.27
2018-02-17T22:05:47.064Z,33.43
2018-02-17T22:08:14.627Z,45.23
2018-02-17T22:10:42.182Z,33.97
2018-02-17T22:13:09.684Z,37.33
2018-02-17T22:15:37.294Z,33.43
2018-02-17T22:18:04.850Z,36.33
2018-02-17T22:20:32.383Z,37.57
2018-02-17T22:23:00.659Z,37.80
2018-02-17T22:25:28.964Z,35.13
2018-02-17T22:27:56.466Z,33.57
2018-02-17T22:30:23.980Z,36.17
2018-02-17T22:32:51.498Z,34.73
2018-02-17T22:35:19.006Z,34.53
2018-02-17T22:37:46.530Z,35.93
2018-02-17T22:40:14.802Z,35.97
2018-02-17T22:42:42.333Z,39.90
2018-02-17T22:45:09.850Z,35.70
2018-02-17T22:47:37.375Z,37.00
2018-02-17T22:50:04.918Z,33.93
2018-02-17T22:52:32.422Z,35.60
2018-02-17T22:54:59.932Z,35.57
2018-02-17T22:57:27.455Z,33.93
2018-02-17T22:59:54.963Z,35.70
2018-02-17T23:02:22.483Z,37.80
2018-02-17T23:04:49.987Z,35.03
2018-02-17T23:07:18.282Z,34.03
2018-02-17T23:09:45.790Z,38.10
2018-02-17T23:12:13.310Z,35.33
2018-02-17T23:14:40.830Z,37.40
2018-02-17T23:17:08.373Z,37.27
2018-02-17T23:19:35.888Z,37.60
2018-02-17T23:22:03.421Z,38.37
2018-02-17T23:24:30.943Z,41.57
2018-02-17T23:26:58.463Z,40.40
2018-02-17T23:29:25.975Z,42.87
2018-02-17T23:31:53.495Z,38.70
2018-02-17T23:34:21.000Z,41.57
2018-02-17T23:36:49.290Z,42.37
2018-02-17T23:39:17.560Z,37.07
2018-02-17T23:41:45.843Z,42.53
2018-02-17T23:44:14.111Z,44.57
2018-02-17T23:46:42.398Z,44.43
2018-02-17T23:49:10.668Z,42.57
2018-02-17T23:51:38.962Z,44.37
2018-02-17T23:54:06.470Z,43.33
2018-02-17T23:56:34.078Z,41.90
2018-02-17T23:59:01.582Z,52.60
